createdAt,value
2023-04-02T00:00:33.293Z,1.10
2023-04-02T00:03:01.612Z,2.73
2023-04-02T00:05:34.604Z,0.90
2023-04-02T00:08:03.435Z,0.80
2023-04-02T00:10:32.248Z,1.37
2023-04-02T00:13:04.960Z,0.63
2023-04-02T00:15:31.599Z,0.60
2023-04-02T00:17:59.112Z,1.00
2023-04-02T00:20:26.699Z,0.70
2023-04-02T00:22:53.865Z,1.07
2023-04-02T00:25:20.505Z,1.40
2023-04-02T00:27:47.091Z,1.10
2023-04-02T00:30:14.094Z,0.80
2023-04-02T00:32:40.609Z,0.77
2023-04-02T00:35:18.869Z,0.83
2023-04-02T00:37:46.048Z,0.90
2023-04-02T00:40:16.985Z,0.80
2023-04-02T00:42:44.619Z,1.63
2023-04-02T00:45:18.738Z,1.33
2023-04-02T00:47:45.432Z,1.00
2023-04-02T00:50:11.924Z,0.90
2023-04-02T00:52:39.164Z,1.00
2023-04-02T00:55:08.056Z,0.90
2023-04-02T00:57:34.581Z,1.30
2023-04-02T01:00:07.858Z,0.80
2023-04-02T01:02:38.409Z,1.00
2023-04-02T01:05:17.676Z,1.10
2023-04-02T01:07:59.656Z,0.87
2023-04-02T01:10:33.959Z,1.17
2023-04-02T01:13:06.566Z,1.43
2023-04-02T01:15:37.142Z,1.47
2023-04-02T01:18:06.816Z,1.10
2023-04-02T01:20:52.184Z,1.27
2023-04-02T01:23:24.251Z,1.17
2023-04-02T01:25:54.802Z,1.20
2023-04-02T01:28:21.199Z,1.23
2023-04-02T01:30:49.555Z,1.47
2023-04-02T01:33:16.130Z,1.20
2023-04-02T01:35:44.853Z,1.20
2023-04-02T01:38:18.995Z,1.27
2023-04-02T01:40:45.699Z,1.20
2023-04-02T01:43:14.908Z,1.33
2023-04-02T01:45:41.653Z,1.20
2023-04-02T01:48:16.970Z,1.10
2023-04-02T01:50:44.464Z,1.57
2023-04-02T01:53:13.234Z,1.43
2023-04-02T01:55:42.029Z,1.40
2023-04-02T01:58:09.918Z,1.67
2023-04-02T02:00:37.541Z,1.50
2023-04-02T02:03:05.245Z,1.50
2023-04-02T02:05:32.372Z,3.03
2023-04-02T02:08:01.288Z,1.60
2023-04-02T02:10:35.418Z,1.60
2023-04-02T02:13:02.283Z,4.80
2023-04-02T02:15:28.911Z,2.13
2023-04-02T02:17:58.205Z,1.93
2023-04-02T02:20:25.964Z,1.80
2023-04-02T02:22:52.497Z,2.10
2023-04-02T02:25:20.878Z,2.43
2023-04-02T02:28:16.547Z,2.30
2023-04-02T02:30:50.703Z,2.87
2023-04-02T02:33:26.280Z,3.40
2023-04-02T02:35:55.206Z,3.37
2023-04-02T02:38:27.415Z,3.80
2023-04-02T02:40:56.637Z,2.83
2023-04-02T02:43:23.466Z,3.60
2023-04-02T02:45:51.319Z,3.67
2023-04-02T02:48:20.194Z,3.17
2023-04-02T02:50:46.985Z,3.20
2023-04-02T02:53:21.088Z,3.70
2023-04-02T02:55:49.372Z,3.43
2023-04-02T02:58:17.860Z,3.20
2023-04-02T03:00:44.913Z,4.00
2023-04-02T03:03:13.388Z,3.23
2023-04-02T03:05:40.404Z,3.43
2023-04-02T03:08:09.713Z,3.57
2023-04-02T03:10:45.629Z,3.70
2023-04-02T03:13:30.152Z,3.17
2023-04-02T03:16:10.388Z,2.70
2023-04-02T03:18:46.138Z,2.83
2023-04-02T03:21:24.829Z,2.60
2023-04-02T03:24:02.081Z,3.03
2023-04-02T03:26:38.592Z,2.57
2023-04-02T03:29:08.643Z,3.07
2023-04-02T03:31:40.386Z,2.87
2023-04-02T03:34:45.547Z,2.60
2023-04-02T03:37:17.659Z,2.70
2023-04-02T03:39:46.663Z,2.83
2023-04-02T03:42:25.306Z,2.80
2023-04-02T03:44:54.879Z,3.27
2023-04-02T03:47:40.078Z,2.90
2023-04-02T03:50:07.623Z,2.80
2023-04-02T03:52:36.677Z,3.10
2023-04-02T03:55:09.591Z,3.93
2023-04-02T03:57:38.661Z,4.00
2023-04-02T04:00:14.483Z,4.23
2023-04-02T04:02:41.208Z,3.10
2023-04-02T04:05:18.489Z,3.50
2023-04-02T04:07:45.138Z,2.60
2023-04-02T04:10:20.880Z,3.03
2023-04-02T04:12:48.005Z,2.70
2023-04-02T04:15:21.495Z,2.47
2023-04-02T04:17:51.504Z,2.97
2023-04-02T04:20:22.075Z,2.93
2023-04-02T04:22:50.010Z,2.30
2023-04-02T04:25:25.488Z,3.77
2023-04-02T04:28:05.714Z,2.10
2023-04-02T04:30:52.543Z,2.07
2023-04-02T04:33:34.641Z,2.03
2023-04-02T04:36:02.348Z,1.90
2023-04-02T04:38:33.850Z,1.67
2023-04-02T04:41:05.355Z,1.40
2023-04-02T04:43:31.672Z,1.93
2023-04-02T04:46:03.938Z,2.03
2023-04-02T04:48:37.121Z,1.93
2023-04-02T04:51:03.586Z,3.73
2023-04-02T04:53:31.044Z,1.60
2023-04-02T04:56:15.944Z,1.80
2023-04-02T04:58:54.200Z,2.00
2023-04-02T05:01:27.441Z,2.67
2023-04-02T05:03:53.916Z,2.00
2023-04-02T05:06:35.700Z,2.00
2023-04-02T05:09:06.752Z,2.73
2023-04-02T05:11:36.173Z,3.00
2023-04-02T05:14:08.230Z,2.57
2023-04-02T05:16:43.429Z,2.73
2023-04-02T05:19:16.834Z,3.40
2023-04-02T05:21:57.952Z,2.20
2023-04-02T05:24:43.737Z,1.90
2023-04-02T05:27:30.531Z,2.43
2023-04-02T05:30:07.004Z,3.87
2023-04-02T05:32:36.116Z,2.03
2023-04-02T05:35:06.549Z,1.87
2023-04-02T05:37:33.664Z,2.30
2023-04-02T05:40:06.484Z,2.40
2023-04-02T05:42:35.810Z,2.93
2023-04-02T05:45:08.644Z,3.33
2023-04-02T05:47:40.911Z,3.50
2023-04-02T05:50:07.696Z,2.10
2023-04-02T05:52:36.173Z,2.00
2023-04-02T05:55:06.943Z,1.80
2023-04-02T05:57:44.821Z,2.00
2023-04-02T06:00:17.588Z,1.83
2023-04-02T06:02:53.201Z,1.80
2023-04-02T06:05:22.340Z,3.93
2023-04-02T06:07:48.758Z,2.30
2023-04-02T06:10:24.597Z,2.03
2023-04-02T06:13:03.869Z,1.87
2023-04-02T06:15:31.813Z,1.83
2023-04-02T06:18:01.525Z,4.03
2023-04-02T06:20:28.609Z,1.80
2023-04-02T06:23:11.348Z,2.73
2023-04-02T06:25:46.432Z,1.50
2023-04-02T06:28:16.009Z,2.10
2023-04-02T06:30:43.199Z,2.53
2023-04-02T06:33:12.211Z,1.60
2023-04-02T06:35:41.340Z,2.03
2023-04-02T06:38:14.662Z,1.70
2023-04-02T06:40:42.685Z,1.60
2023-04-02T06:43:26.329Z,2.00
2023-04-02T06:45:55.967Z,2.03
2023-04-02T06:48:23.174Z,2.43
2023-04-02T06:50:49.590Z,1.63
2023-04-02T06:53:19.869Z,2.47
2023-04-02T06:55:52.576Z,1.87
2023-04-02T06:58:19.486Z,3.43
2023-04-02T07:00:47.188Z,1.73
2023-04-02T07:03:15.844Z,1.70
2023-04-02T07:05:43.026Z,1.60
2023-04-02T07:08:09.599Z,2.93
2023-04-02T07:10:36.301Z,1.63
2023-04-02T07:13:03.096Z,1.70
2023-04-02T07:15:29.748Z,1.60
2023-04-02T07:17:59.132Z,1.87
2023-04-02T07:20:31.009Z,2.03
2023-04-02T07:22:57.563Z,1.57
2023-04-02T07:25:24.488Z,2.63
2023-04-02T07:27:51.547Z,1.60
2023-04-02T07:30:18.090Z,1.77
2023-04-02T07:32:44.635Z,2.53
2023-04-02T07:35:11.581Z,4.93
2023-04-02T07:37:38.462Z,9.03
2023-04-02T07:40:24.338Z,29.53
2023-04-02T07:42:50.898Z,13.10
2023-04-02T07:45:17.341Z,44.23
2023-04-02T07:47:44.959Z,21.77
2023-04-02T07:50:11.447Z,4.20
2023-04-02T07:52:42.616Z,5.73
2023-04-02T07:55:10.091Z,4.83
2023-04-02T07:57:55.820Z,11.20
2023-04-02T08:00:23.037Z,21.40
2023-04-02T08:02:50.036Z,11.80
2023-04-02T08:05:17.288Z,7.07
2023-04-02T08:07:43.825Z,5.60
2023-04-02T08:10:11.266Z,23.57
2023-04-02T08:12:38.314Z,1.70
2023-04-02T08:15:08.628Z,7.00
2023-04-02T08:17:35.312Z,11.50
2023-04-02T08:20:01.926Z,14.63
2023-04-02T08:22:29.039Z,6.33
2023-04-02T08:24:56.424Z,2.93
2023-04-02T08:27:26.409Z,2.60
2023-04-02T08:29:52.838Z,2.80
2023-04-02T08:32:19.337Z,10.60
2023-04-02T08:34:46.313Z,5.30
2023-04-02T08:37:13.176Z,1.50
2023-04-02T08:39:39.836Z,1.27
2023-04-02T08:42:25.110Z,1.40
2023-04-02T08:45:23.549Z,2.57
2023-04-02T08:47:51.447Z,1.10
2023-04-02T08:50:18.300Z,0.90
2023-04-02T08:52:44.718Z,0.90
2023-04-02T08:55:22.358Z,1.50
2023-04-02T08:57:57.118Z,1.23
2023-04-02T09:00:38.092Z,1.10
2023-04-02T09:03:17.878Z,1.50
2023-04-02T09:05:45.419Z,2.37
2023-04-02T09:08:22.558Z,1.00
2023-04-02T09:10:54.995Z,1.00
2023-04-02T09:13:26.334Z,1.20
2023-04-02T09:15:56.460Z,0.83
2023-04-02T09:18:22.976Z,2.17
2023-04-02T09:20:50.187Z,1.20
2023-04-02T09:23:18.488Z,2.37
2023-04-02T09:25:57.405Z,1.20
2023-04-02T09:28:29.698Z,0.67
2023-04-02T09:31:00.279Z,1.83
2023-04-02T09:33:47.280Z,0.87
2023-04-02T09:36:37.228Z,1.17
2023-04-02T09:39:20.360Z,0.70
2023-04-02T09:41:55.777Z,2.63
2023-04-02T09:44:31.538Z,1.47
2023-04-02T09:46:59.998Z,0.80
2023-04-02T09:49:37.226Z,0.80
2023-04-02T09:52:22.586Z,0.90
2023-04-02T09:55:06.099Z,0.97
2023-04-02T09:57:33.409Z,0.77
2023-04-02T10:00:30.567Z,0.90
2023-04-02T10:03:05.124Z,0.70
2023-04-02T10:05:40.598Z,0.80
2023-04-02T10:08:24.885Z,0.73
2023-04-02T10:10:53.025Z,0.77
2023-04-02T10:13:28.858Z,0.70
2023-04-02T10:15:58.362Z,0.80
2023-04-02T10:18:28.968Z,0.67
2023-04-02T10:20:56.286Z,0.60
2023-04-02T10:23:24.851Z,0.80
2023-04-02T10:26:06.613Z,0.80
2023-04-02T10:28:45.241Z,0.77
2023-04-02T10:31:31.845Z,0.63
2023-04-02T10:34:02.706Z,0.63
2023-04-02T10:48:29.539Z,0.53
2023-04-02T10:51:34.344Z,0.83
2023-04-02T10:54:18.920Z,1.27
2023-04-02T10:56:51.137Z,0.80
2023-04-02T10:59:27.155Z,0.70
2023-04-02T11:01:57.347Z,1.05
2023-04-02T11:04:31.655Z,1.10
2023-04-02T11:07:19.924Z,0.90
2023-04-02T11:09:52.078Z,0.90
2023-04-02T11:12:25.691Z,1.30
2023-04-02T11:14:54.300Z,1.37
2023-04-02T11:17:21.480Z,1.00
2023-04-02T11:19:48.290Z,0.90
2023-04-02T11:22:20.039Z,0.90
2023-04-02T11:24:54.689Z,1.10
2023-04-02T11:27:30.796Z,1.10
2023-04-02T11:30:15.825Z,0.97
2023-04-02T11:32:45.327Z,0.97
2023-04-02T11:35:30.729Z,0.90
2023-04-02T11:38:12.556Z,1.13
2023-04-02T11:40:58.500Z,1.00
2023-04-02T11:43:34.491Z,1.00
2023-04-02T11:46:04.394Z,1.77
2023-04-02T11:48:36.413Z,0.70
2023-04-02T11:51:32.380Z,0.70
2023-04-02T11:53:59.110Z,0.70
2023-04-02T11:56:46.261Z,1.03
2023-04-02T11:59:38.371Z,0.70
2023-04-02T12:02:10.815Z,0.80
2023-04-02T12:04:43.742Z,1.30
2023-04-02T12:07:36.636Z,0.70
2023-04-02T12:10:16.478Z,0.63
2023-04-02T12:12:43.642Z,0.73
2023-04-02T12:15:48.862Z,0.80
2023-04-02T12:18:22.813Z,0.70
2023-04-02T12:20:57.250Z,0.80
2023-04-02T12:23:31.263Z,0.70
2023-04-02T12:26:03.927Z,0.50
2023-04-02T12:28:33.801Z,0.60
2023-04-02T12:31:09.615Z,0.50
2023-04-02T12:33:38.117Z,0.37
2023-04-02T12:36:19.289Z,0.60
2023-04-02T12:38:58.497Z,0.40
2023-04-02T12:41:30.199Z,0.60
2023-04-02T12:44:02.057Z,0.50
2023-04-02T12:46:31.259Z,0.47
2023-04-02T12:49:37.078Z,0.43
2023-04-02T12:52:13.220Z,0.30
2023-04-02T12:54:50.143Z,0.30
2023-04-02T12:57:31.598Z,0.40
2023-04-02T13:00:00.222Z,0.30
2023-04-02T13:02:29.473Z,0.47
2023-04-02T13:05:01.641Z,0.40
2023-04-02T13:07:33.625Z,0.40
2023-04-02T13:10:02.858Z,0.40
2023-04-02T13:12:41.595Z,0.40
2023-04-02T13:15:22.807Z,0.60
2023-04-02T13:18:23.107Z,0.50
2023-04-02T13:21:00.178Z,0.40
2023-04-02T13:23:29.668Z,1.07
2023-04-02T13:25:58.557Z,0.50
2023-04-02T13:28:28.994Z,0.60
2023-04-02T13:30:55.667Z,0.60
2023-04-02T13:33:22.499Z,0.50
2023-04-02T13:35:49.271Z,0.30
2023-04-02T13:38:15.873Z,0.57
2023-04-02T13:40:42.524Z,0.50
2023-04-02T13:43:16.947Z,0.43
2023-04-02T13:45:47.427Z,0.40
2023-04-02T13:48:16.018Z,0.40
2023-04-02T13:50:42.779Z,0.50
2023-04-02T13:53:40.541Z,0.63
2023-04-02T13:56:08.434Z,2.53
2023-04-02T13:58:34.982Z,0.70
2023-04-02T14:01:01.984Z,0.50
2023-04-02T14:03:29.595Z,0.67
2023-04-02T14:06:28.397Z,0.70
2023-04-02T14:08:54.893Z,0.70
2023-04-02T14:11:30.464Z,0.60
2023-04-02T14:14:03.023Z,0.50
2023-04-02T14:16:35.646Z,1.33
2023-04-02T14:19:39.002Z,0.60
2023-04-02T14:22:08.464Z,0.63
2023-04-02T14:24:53.702Z,0.87
2023-04-02T14:27:40.467Z,0.70
2023-04-02T14:30:07.143Z,0.67
2023-04-02T14:32:50.348Z,0.60
2023-04-02T14:35:26.876Z,0.97
2023-04-02T14:38:05.717Z,0.80
2023-04-02T14:40:42.202Z,0.63
2023-04-02T14:43:21.373Z,0.70
2023-04-02T14:45:58.572Z,0.70
2023-04-02T14:48:42.281Z,0.50
2023-04-02T14:51:21.375Z,0.50
2023-04-02T14:53:51.577Z,0.70
2023-04-02T14:56:23.641Z,0.50
2023-04-02T14:59:03.570Z,0.60
2023-04-02T15:01:43.426Z,0.50
2023-04-02T15:04:30.954Z,0.40
2023-04-02T15:07:04.905Z,0.40
2023-04-02T15:09:45.087Z,0.60
2023-04-02T15:12:23.907Z,0.50
2023-04-02T15:15:33.019Z,0.50
2023-04-02T15:18:11.254Z,0.50
2023-04-02T15:21:16.660Z,0.50
2023-04-02T15:23:59.059Z,0.40
2023-04-02T15:26:51.314Z,0.40
2023-04-02T15:29:36.452Z,0.40
2023-04-02T15:32:32.352Z,0.43
2023-04-02T15:35:14.692Z,0.40
2023-04-02T15:38:22.709Z,0.30
2023-04-02T15:41:32.324Z,0.23
2023-04-02T15:44:17.175Z,0.30
2023-04-02T15:47:03.172Z,0.20
2023-04-02T15:49:50.985Z,0.40
2023-04-02T15:52:52.753Z,0.40
2023-04-02T15:55:26.644Z,0.40
2023-04-02T15:58:30.971Z,0.20
2023-04-02T16:01:25.874Z,0.40
2023-04-02T16:04:11.638Z,0.30
2023-04-02T16:06:56.799Z,0.28
2023-04-02T16:09:34.606Z,0.50
2023-04-02T16:12:19.743Z,0.30
2023-04-02T16:14:48.326Z,0.30
2023-04-02T16:17:32.728Z,0.45
2023-04-02T16:20:24.202Z,0.40
2023-04-02T16:23:01.179Z,0.50
2023-04-02T16:25:39.128Z,0.50
2023-04-02T16:28:23.985Z,0.50
2023-04-02T16:31:08.185Z,0.40
2023-04-02T16:33:51.078Z,0.30
2023-04-02T16:36:39.780Z,0.40
2023-04-02T16:39:26.659Z,0.70
2023-04-02T16:42:21.947Z,0.60
2023-04-02T16:45:03.065Z,0.50
2023-04-02T16:48:00.685Z,0.70
2023-04-02T16:50:39.400Z,1.03
2023-04-02T16:53:11.786Z,0.47
2023-04-02T16:56:18.130Z,0.90
2023-04-02T16:59:09.349Z,0.60
2023-04-02T17:01:45.013Z,2.03
2023-04-02T17:04:49.836Z,0.50
2023-04-02T17:07:19.167Z,0.47
2023-04-02T17:09:57.602Z,3.20
2023-04-02T17:12:38.693Z,4.57
2023-04-02T17:15:28.407Z,2.57
2023-04-02T17:18:01.800Z,0.83
2023-04-02T17:20:33.203Z,0.93
2023-04-02T17:23:02.762Z,1.07
2023-04-02T17:25:37.350Z,0.50
2023-04-02T17:28:12.852Z,0.60
2023-04-02T17:30:47.774Z,0.50
2023-04-02T17:33:17.483Z,1.00
2023-04-02T17:36:09.424Z,0.40
2023-04-02T17:39:02.623Z,0.47
2023-04-02T17:41:29.157Z,1.80
2023-04-02T17:44:37.337Z,1.33
2023-04-02T17:47:20.786Z,2.67
2023-04-02T17:49:47.290Z,0.90
2023-04-02T17:52:19.705Z,3.20
2023-04-02T17:55:05.416Z,0.60
2023-04-02T17:57:44.196Z,0.50
2023-04-02T18:00:11.033Z,0.60
2023-04-02T18:02:49.784Z,1.83
2023-04-02T18:05:28.324Z,0.50
2023-04-02T18:07:57.929Z,0.50
2023-04-02T18:10:36.639Z,0.67
2023-04-02T18:13:12.042Z,0.60
2023-04-02T18:15:41.624Z,0.50
2023-04-02T18:18:26.333Z,3.30
2023-04-02T18:21:25.687Z,0.70
2023-04-02T18:24:20.600Z,1.47
2023-04-02T18:26:59.430Z,3.67
2023-04-02T18:29:29.003Z,5.20
2023-04-02T18:32:17.101Z,5.07
2023-04-02T18:35:08.075Z,2.07
2023-04-02T18:37:51.400Z,0.73
2023-04-02T18:40:46.853Z,2.27
2023-04-02T18:43:34.975Z,4.90
2023-04-02T18:46:05.838Z,2.00
2023-04-02T18:48:42.869Z,2.60
2023-04-02T18:51:21.341Z,1.10
2023-04-02T18:53:54.339Z,1.40
2023-04-02T18:56:22.402Z,0.90
2023-04-02T18:58:53.258Z,0.80
2023-04-02T19:01:31.173Z,1.40
2023-04-02T19:04:12.973Z,1.63
2023-04-02T19:06:43.876Z,1.47
2023-04-02T19:09:16.748Z,4.27
2023-04-02T19:11:43.351Z,1.10
2023-04-02T19:14:18.871Z,1.03
2023-04-02T19:16:48.474Z,1.60
2023-04-02T19:19:20.898Z,1.40
2023-04-02T19:22:12.117Z,2.67
2023-04-02T19:25:03.413Z,2.00
2023-04-02T19:27:29.856Z,1.33
2023-04-02T19:30:02.582Z,1.40
2023-04-02T19:32:49.438Z,1.20
2023-04-02T19:36:08.491Z,0.97
2023-04-02T19:39:03.132Z,0.73
2023-04-02T19:41:43.965Z,1.43
2023-04-02T19:44:13.382Z,0.70
2023-04-02T19:46:40.827Z,0.80
2023-04-02T19:49:32.751Z,0.70
2023-04-02T19:51:59.409Z,1.20
2023-04-02T19:54:26.229Z,0.67
2023-04-02T19:56:52.872Z,0.60
2023-04-02T19:59:19.463Z,1.00
2023-04-02T20:01:47.167Z,0.80
2023-04-02T20:04:14.273Z,0.90
2023-04-02T20:06:41.532Z,0.60
2023-04-02T20:09:08.823Z,0.60
2023-04-02T20:11:37.018Z,0.80
2023-04-02T20:14:04.484Z,0.80
2023-04-02T20:16:31.255Z,0.80
2023-04-02T20:18:57.955Z,0.87
2023-04-02T20:21:24.536Z,0.73
2023-04-02T20:23:55.061Z,0.60
2023-04-02T20:26:22.639Z,0.70
2023-04-02T20:28:49.562Z,0.60
2023-04-02T20:31:18.530Z,1.07
2023-04-02T20:33:45.608Z,0.70
2023-04-02T20:36:14.825Z,0.60
2023-04-02T20:38:41.667Z,0.80
2023-04-02T20:41:09.411Z,0.67
2023-04-02T20:43:37.551Z,0.70
2023-04-02T20:46:06.024Z,0.63
2023-04-02T20:48:35.706Z,0.60
2023-04-02T20:51:04.227Z,1.53
2023-04-02T20:53:32.684Z,0.70
2023-04-02T20:56:10.203Z,0.80
2023-04-02T20:58:37.843Z,0.60
2023-04-02T21:01:13.109Z,0.50
2023-04-02T21:03:40.083Z,0.70
2023-04-02T21:06:13.059Z,0.60
2023-04-02T21:08:39.799Z,0.80
2023-04-02T21:11:07.238Z,0.67
2023-04-02T21:13:36.383Z,0.60
2023-04-02T21:16:05.375Z,1.47
2023-04-02T21:18:32.303Z,0.60
2023-04-02T21:21:04.964Z,0.57
2023-04-02T21:23:32.390Z,0.73
2023-04-02T21:26:06.199Z,0.70
2023-04-02T21:28:34.039Z,0.87
2023-04-02T21:31:12.432Z,0.70
2023-04-02T21:33:44.492Z,0.70
2023-04-02T21:36:14.508Z,0.70
2023-04-02T21:38:46.305Z,1.80
2023-04-02T21:41:19.716Z,0.60
2023-04-02T21:43:48.327Z,1.47
2023-04-02T21:46:21.238Z,0.73
2023-04-02T21:48:49.318Z,1.27
2023-04-02T21:51:22.096Z,2.27
2023-04-02T21:53:49.563Z,2.20
2023-04-02T21:56:18.578Z,1.27
2023-04-02T21:58:47.007Z,2.43
2023-04-02T22:01:26.119Z,0.83
2023-04-02T22:03:55.733Z,0.97
2023-04-02T22:06:24.144Z,1.17
2023-04-02T22:08:56.848Z,0.90
2023-04-02T22:11:26.606Z,1.00
2023-04-02T22:13:53.602Z,1.20
2023-04-02T22:16:22.704Z,0.90
2023-04-02T22:18:50.804Z,0.80
2023-04-02T22:21:18.311Z,0.93
2023-04-02T22:23:45.520Z,1.00
2023-04-02T22:26:13.517Z,0.83
2023-04-02T22:28:40.487Z,0.90
2023-04-02T22:31:16.130Z,1.00
2023-04-02T22:33:44.483Z,1.67
2023-04-02T22:36:12.288Z,1.00
2023-04-02T22:38:39.086Z,0.93
2023-04-02T22:41:11.105Z,1.50
2023-04-02T22:43:38.599Z,1.07
2023-04-02T22:46:07.277Z,1.13
2023-04-02T22:48:34.545Z,1.30
2023-04-02T22:51:01.471Z,0.90
2023-04-02T22:53:29.234Z,0.80
2023-04-02T22:55:55.828Z,0.80
2023-04-02T22:58:22.687Z,1.00
2023-04-02T23:00:49.378Z,1.00
2023-04-02T23:03:16.265Z,0.80
2023-04-02T23:05:43.025Z,0.90
2023-04-02T23:08:09.825Z,1.00
2023-04-02T23:10:36.994Z,1.10
2023-04-02T23:13:03.835Z,1.07
2023-04-02T23:15:30.566Z,0.77
2023-04-02T23:17:57.198Z,1.00
2023-04-02T23:20:23.856Z,2.43
2023-04-02T23:22:50.450Z,1.20
2023-04-02T23:25:17.111Z,0.87
2023-04-02T23:27:43.681Z,0.90
2023-04-02T23:30:10.496Z,1.00
2023-04-02T23:32:37.093Z,1.27
2023-04-02T23:35:03.844Z,1.03
2023-04-02T23:37:30.418Z,1.10
2023-04-02T23:39:57.118Z,1.83
2023-04-02T23:42:23.657Z,0.90
2023-04-02T23:44:50.301Z,1.10
2023-04-02T23:47:17.147Z,1.40
2023-04-02T23:49:47.864Z,1.30
2023-04-02T23:52:15.479Z,1.60
2023-04-02T23:54:42.089Z,1.63
2023-04-02T23:57:08.690Z,1.87
2023-04-02T23:59:35.410Z,1.67
